Valley International Airport
KHRL : rendu visible

Aérodrome :











RETROUVEZ-NOUS SUR...

 
LOGIN :

S'inscrire | Disclaimer

   EN    FR    IT 

 









Légende :    VFR   VFR Marginal   IFR   IFR Intensif   IFR Très Intensif
Visi : 
Plafond : 
>= 8 km
>= 3000ft
5 à 8 km
1000 à 3000 ft
1500m à 5 km
500 à 1000 ft
800 à 1500m
200 à 500 ft
< 800m
< 200 ft
Symboles :   Orages  Brouillard  Fortes neiges  Fortes précipitations  Vent > 20 kt






- Altitude de l'aérodrome : 36 ft
- Code IATA : HRL


KHRL - Valley International

DERNIER METAR :
  • 190452Z 14006KT 10SM CLR 26/25 A3001

METARs EXPIRÉS :
  • 190352Z 14004KT 10SM CLR 26/26 A3001
  • 190252Z 13006KT 10SM CLR 27/26 A2999
  • 190152Z 11006KT 10SM CLR 27/26 A2999
  • 190052Z 12007KT 10SM CLR 29/26 A2997

TAF KHRL
Valide du 19 à 06h jusqu'au 20 à 06h UTC


190522Z 1906/2006 14005KT P6SM FEW020 SCT250
FM192000 12009KT P6SM SCT030 SCT250
FM200200 14005KT P6SM FEW020 SCT250
FIR KZHU / Amérique du Nord



MET'MAP, la Météo Aéronautique d'un coup d'oeil ! - Copyright ORBIFLY Décembre 2007 - Disclaimer

ORBIFLY MET'MAP TEAM :

Programmation & Développement : Alexandra Zaïnal
Sur une idée originale de : Baudouin d'Aumeries
Soutien technique & logistique : Manuel Goepfert
Assistance : Marc-Olivier Méhu




SOURCES & CREDITS :

   NOAA       Earth
Advisory